Time;durP1;ratioP1;P1;durP2;ratioP2;P2;SDS_P1;SDS_P2;PMS_P1;PMS_P2;Temp;Humidity;BMP_temperature;BMP_pressure;BME280_temperature;BME280_humidity;BME280_pressure;Samples;Min_cycle;Max_cycle;Signal;HPM_P1;HPM_P2
2024/02/04 00:00:54;;;;;;;7.55;6.47;;;13.00;82.90;;;;;;4890174;29;20028;-79
2024/02/04 00:03:21;;;;;;;7.10;6.38;;;13.00;82.90;;;;;;4893591;29;20033;-80
2024/02/04 00:05:47;;;;;;;7.95;6.60;;;13.10;82.90;;;;;;4906385;29;20033;-79
2024/02/04 00:08:17;;;;;;;7.60;6.10;;;13.00;82.90;;;;;;4888429;29;20067;-80
2024/02/04 00:10:45;;;;;;;7.75;6.05;;;13.00;82.90;;;;;;4886493;29;20111;-81
2024/02/04 00:13:11;;;;;;;7.75;6.22;;;13.10;82.90;;;;;;4884375;29;20060;-80
2024/02/04 00:15:37;;;;;;;7.43;6.13;;;13.00;82.90;;;;;;4902805;29;20111;-95
2024/02/04 00:18:03;;;;;;;7.78;5.72;;;13.10;83.00;;;;;;4891879;29;20071;-95
2024/02/04 00:20:29;;;;;;;6.85;6.03;;;13.10;82.90;;;;;;4899785;29;20397;-95
2024/02/04 00:22:55;;;;;;;7.30;5.72;;;13.10;82.90;;;;;;4895797;29;20032;-81
2024/02/04 00:25:23;;;;;;;7.00;5.68;;;13.00;82.90;;;;;;4885451;29;20640;-80
2024/02/04 00:27:49;;;;;;;6.72;5.57;;;13.10;82.90;;;;;;4900753;29;20032;-80
2024/02/04 00:30:15;;;;;;;7.38;5.47;;;13.10;82.90;;;;;;4893150;29;20115;-95
2024/02/04 00:32:41;;;;;;;6.18;5.07;;;13.10;82.90;;;;;;4896844;29;20512;-80
2024/02/04 00:35:09;;;;;;;6.72;5.32;;;13.10;82.90;;;;;;4878493;29;20119;-95
2024/02/04 00:37:35;;;;;;;7.10;5.50;;;13.10;82.90;;;;;;4901201;29;20131;-87
2024/02/04 00:40:00;;;;;;;6.57;5.70;;;13.00;82.80;;;;;;4879389;29;20673;-86
2024/02/04 00:42:26;;;;;;;6.25;5.13;;;13.10;82.90;;;;;;4896521;29;20505;-86
2024/02/04 00:44:52;;;;;;;6.28;5.30;;;13.10;82.90;;;;;;4895942;29;20116;-86
2024/02/04 00:47:18;;;;;;;6.15;5.10;;;13.10;82.90;;;;;;4897183;29;20029;-88
2024/02/04 00:49:43;;;;;;;6.72;5.47;;;13.00;82.80;;;;;;4894313;29;20501;-81
2024/02/04 00:52:09;;;;;;;6.97;5.65;;;13.10;82.90;;;;;;4881263;29;20504;-80
2024/02/04 00:54:35;;;;;;;7.05;5.88;;;13.10;82.90;;;;;;4895146;29;20033;-81
2024/02/04 00:57:01;;;;;;;6.38;5.35;;;13.10;82.90;;;;;;4896490;29;20401;-95
2024/02/04 00:59:27;;;;;;;7.63;5.57;;;13.10;82.90;;;;;;4886528;29;20576;-86
2024/02/04 01:01:53;;;;;;;8.93;6.40;;;13.10;82.90;;;;;;4894373;29;20497;-87
2024/02/04 01:04:19;;;;;;;7.07;5.85;;;13.10;82.90;;;;;;4905135;29;20035;-94
2024/02/04 01:06:44;;;;;;;7.28;5.55;;;13.10;82.90;;;;;;4900616;29;20024;-86
2024/02/04 01:09:10;;;;;;;6.90;5.90;;;13.10;82.90;;;;;;4885019;29;20065;-94
2024/02/04 01:11:36;;;;;;;7.57;5.70;;;13.10;82.90;;;;;;4885683;29;20028;-95
2024/02/04 01:14:02;;;;;;;6.82;5.70;;;13.10;82.90;;;;;;4901800;29;20568;-86
2024/02/04 01:16:29;;;;;;;8.07;6.32;;;13.10;82.90;;;;;;4883696;29;20522;-86
2024/02/04 01:18:54;;;;;;;6.60;5.28;;;13.10;82.90;;;;;;4900090;29;20021;-86
2024/02/04 01:21:20;;;;;;;6.97;5.72;;;13.10;82.90;;;;;;4884284;29;20441;-87
2024/02/04 01:23:46;;;;;;;6.68;5.60;;;13.10;82.90;;;;;;4894693;29;20048;-86
2024/02/04 01:26:13;;;;;;;8.02;6.10;;;13.10;82.90;;;;;;4898267;29;20036;-86
2024/02/04 01:28:39;;;;;;;7.05;5.45;;;13.10;82.90;;;;;;4898439;29;20043;-85
2024/02/04 01:31:06;;;;;;;7.82;5.45;;;13.10;82.90;;;;;;4897233;29;20020;-79
2024/02/04 01:33:33;;;;;;;6.93;5.28;;;13.10;82.90;;;;;;4879410;29;20037;-80
2024/02/04 01:35:59;;;;;;;8.00;6.28;;;13.10;83.00;;;;;;4878297;29;20032;-79
2024/02/04 01:38:26;;;;;;;6.57;5.45;;;13.10;82.90;;;;;;4878078;29;20041;-80
2024/02/04 01:40:53;;;;;;;7.78;6.18;;;13.10;82.90;;;;;;4882261;29;20033;-94
2024/02/04 01:43:21;;;;;;;7.07;5.40;;;13.10;82.90;;;;;;4878957;29;20044;-77
2024/02/04 01:45:47;;;;;;;7.10;5.50;;;13.10;83.20;;;;;;4897228;29;20505;-84
2024/02/04 01:48:15;;;;;;;7.32;5.47;;;13.10;83.00;;;;;;4897581;29;20029;-82
2024/02/04 01:50:42;;;;;;;6.10;5.22;;;13.10;83.00;;;;;;4880159;29;20632;-82
2024/02/04 01:53:08;;;;;;;6.95;5.43;;;13.10;83.00;;;;;;4896953;29;20027;-84
2024/02/04 01:55:34;;;;;;;6.90;5.25;;;13.10;83.00;;;;;;4896163;29;20124;-82
2024/02/04 01:58:01;;;;;;;6.50;5.10;;;13.10;83.00;;;;;;4913148;29;20580;-84
2024/02/04 02:00:27;;;;;;;7.18;5.45;;;13.10;83.00;;;;;;4880917;29;20088;-84
2024/02/04 02:02:53;;;;;;;6.13;5.22;;;13.10;83.00;;;;;;4880300;29;20028;-82
2024/02/04 02:05:19;;;;;;;6.53;5.28;;;13.10;83.00;;;;;;4897506;29;20052;-84
2024/02/04 02:07:47;;;;;;;7.20;5.35;;;13.10;83.00;;;;;;4895463;29;20085;-76
2024/02/04 02:10:14;;;;;;;6.95;5.45;;;13.10;83.00;;;;;;4895694;29;20056;-82
2024/02/04 02:12:59;;;;;;;8.73;5.90;;;13.10;82.90;;;;;;4910235;29;20033;-77
2024/02/04 02:15:30;;;;;;;6.88;5.18;;;13.10;82.90;;;;;;4909704;29;20457;-76
2024/02/04 02:18:20;;;;;;;8.05;5.93;;;13.10;82.90;;;;;;4895091;29;20029;-84
2024/02/04 02:21:00;;;;;;;7.13;5.55;;;13.10;82.90;;;;;;4893662;29;20120;-81
2024/02/04 02:23:39;;;;;;;6.95;5.50;;;13.10;82.90;;;;;;4877249;29;20508;-76
2024/02/04 02:26:06;;;;;;;7.03;5.40;;;13.10;82.90;;;;;;4879545;29;20085;-82
2024/02/04 02:28:32;;;;;;;6.55;5.07;;;13.10;82.90;;;;;;4896639;29;20107;-84
2024/02/04 02:30:58;;;;;;;7.13;5.55;;;13.10;82.90;;;;;;4895753;29;20119;-84
2024/02/04 02:33:24;;;;;;;7.95;5.38;;;13.10;82.90;;;;;;4896563;29;20499;-85
2024/02/04 02:35:56;;;;;;;7.57;5.30;;;13.10;83.50;;;;;;4879614;29;20025;-86
2024/02/04 02:38:27;;;;;;;7.53;5.20;;;13.10;82.90;;;;;;4895063;29;20037;-83
2024/02/04 02:41:07;;;;;;;6.72;5.05;;;13.10;82.90;;;;;;4892643;29;20508;-81
2024/02/04 02:43:34;;;;;;;7.65;5.47;;;13.10;82.90;;;;;;4894880;29;20043;-83
2024/02/04 02:46:01;;;;;;;7.45;5.57;;;13.10;82.90;;;;;;4881538;29;20025;-82
2024/02/04 02:48:27;;;;;;;7.00;5.60;;;13.10;82.90;;;;;;4895548;29;20056;-82
2024/02/04 02:50:54;;;;;;;7.82;5.60;;;13.10;82.90;;;;;;4895536;29;20495;-77
2024/02/04 02:53:20;;;;;;;6.75;5.30;;;13.10;82.90;;;;;;4887341;29;20143;-84
2024/02/04 02:55:46;;;;;;;6.80;4.88;;;13.10;82.90;;;;;;4893454;29;20043;-84
2024/02/04 02:58:14;;;;;;;6.30;4.90;;;13.10;82.90;;;;;;4880341;29;20117;-83
2024/02/04 03:00:39;;;;;;;6.70;4.97;;;13.10;82.90;;;;;;4891651;29;20013;-81
2024/02/04 03:03:05;;;;;;;6.30;5.20;;;13.10;82.90;;;;;;4879663;29;20564;-82
2024/02/04 03:05:32;;;;;;;6.82;4.82;;;13.10;82.90;;;;;;4895426;29;20128;-77
2024/02/04 03:07:58;;;;;;;7.47;5.03;;;13.10;82.90;;;;;;4878485;29;20046;-81
2024/02/04 03:10:24;;;;;;;7.10;5.28;;;13.00;82.90;;;;;;4894117;29;20052;-83
2024/02/04 03:12:50;;;;;;;7.10;5.22;;;13.00;83.00;;;;;;4908659;29;20086;-81
2024/02/04 03:15:16;;;;;;;6.00;4.60;;;13.00;83.00;;;;;;4895578;29;20028;-81
2024/02/04 03:17:44;;;;;;;7.00;5.10;;;13.10;83.00;;;;;;4879006;29;20100;-83
2024/02/04 03:20:10;;;;;;;6.75;5.68;;;13.00;83.00;;;;;;4894080;29;20028;-82
2024/02/04 03:22:36;;;;;;;6.50;4.97;;;13.00;83.00;;;;;;4893701;29;20059;-82
2024/02/04 03:25:02;;;;;;;6.72;5.05;;;13.00;83.00;;;;;;4876371;29;20435;-83
2024/02/04 03:27:28;;;;;;;6.93;5.32;;;13.00;83.10;;;;;;4879165;29;20029;-77
2024/02/04 03:29:54;;;;;;;6.07;4.78;;;13.00;83.10;;;;;;4893124;29;20086;-76
2024/02/04 03:32:20;;;;;;;6.63;5.07;;;13.00;83.00;;;;;;4894120;29;20037;-76
2024/02/04 03:34:46;;;;;;;6.63;5.32;;;13.10;83.10;;;;;;4877459;29;20024;-84
2024/02/04 03:37:13;;;;;;;6.38;5.47;;;13.00;83.00;;;;;;4895776;29;20032;-83
2024/02/04 03:39:38;;;;;;;8.32;6.13;;;13.00;83.00;;;;;;4893093;29;20025;-82
2024/02/04 03:42:04;;;;;;;7.25;5.60;;;13.10;83.10;;;;;;4891978;29;20497;-82
2024/02/04 03:44:30;;;;;;;8.25;5.90;;;13.00;83.00;;;;;;4877420;29;20119;-82
2024/02/04 03:46:56;;;;;;;7.30;5.93;;;13.00;83.00;;;;;;4891745;29;20116;-82
2024/02/04 03:49:22;;;;;;;7.93;6.28;;;13.00;83.00;;;;;;4894221;29;20032;-82
2024/02/04 03:51:48;;;;;;;7.13;6.13;;;13.00;83.00;;;;;;4890420;29;20067;-82
2024/02/04 03:54:14;;;;;;;7.85;6.25;;;13.10;83.10;;;;;;4879064;29;20032;-81
2024/02/04 03:56:39;;;;;;;8.02;5.93;;;13.00;83.00;;;;;;4893807;29;20033;-82
2024/02/04 03:59:08;;;;;;;7.35;5.80;;;13.00;83.00;;;;;;4878351;29;20080;-83
2024/02/04 04:01:36;;;;;;;7.75;6.15;;;13.00;83.00;;;;;;4889579;29;20029;-76
2024/02/04 04:04:02;;;;;;;7.47;6.53;;;13.00;83.00;;;;;;4892061;29;20433;-75
2024/02/04 04:06:28;;;;;;;8.27;6.22;;;13.00;83.10;;;;;;4890179;29;20123;-76
2024/02/04 04:08:59;;;;;;;7.60;6.15;;;13.00;83.00;;;;;;4893576;29;20445;-81
2024/02/04 04:11:24;;;;;;;7.43;6.00;;;13.00;83.10;;;;;;4891578;29;20524;-83
2024/02/04 04:13:50;;;;;;;7.18;6.13;;;13.00;83.10;;;;;;4891709;29;20033;-84
2024/02/04 04:16:21;;;;;;;6.93;5.70;;;13.00;83.10;;;;;;4892488;29;20028;-76
2024/02/04 04:18:46;;;;;;;7.50;5.45;;;13.00;83.10;;;;;;4890476;29;20036;-81
2024/02/04 04:21:12;;;;;;;7.15;5.32;;;13.00;83.10;;;;;;4878204;29;20470;-83
2024/02/04 04:23:38;;;;;;;8.02;5.97;;;13.00;83.10;;;;;;4892137;29;20029;-83
2024/02/04 04:26:04;;;;;;;7.55;5.80;;;13.00;83.80;;;;;;4902091;29;20028;-77
2024/02/04 04:28:30;;;;;;;7.10;5.40;;;13.00;83.10;;;;;;4890324;29;20044;-83
2024/02/04 04:30:55;;;;;;;8.30;5.85;;;13.00;83.20;;;;;;4908836;29;20084;-84
2024/02/04 04:33:21;;;;;;;8.40;6.15;;;13.00;83.20;;;;;;4891018;29;20032;-77
2024/02/04 04:35:47;;;;;;;7.90;6.10;;;12.90;83.10;;;;;;4875876;29;20029;-81
2024/02/04 04:38:13;;;;;;;8.75;5.32;;;13.00;83.20;;;;;;4908463;29;20213;-81
2024/02/04 04:40:40;;;;;;;6.55;5.30;;;12.90;83.10;;;;;;4890921;29;20414;-82
2024/02/04 04:43:06;;;;;;;7.35;5.45;;;12.90;83.10;;;;;;4880261;29;20075;-81
2024/02/04 04:45:32;;;;;;;6.55;5.03;;;12.90;83.20;;;;;;4893891;29;20124;-76
2024/02/04 04:47:58;;;;;;;6.70;5.03;;;12.90;83.10;;;;;;4874727;29;20063;-76
2024/02/04 04:50:23;;;;;;;7.10;5.13;;;12.90;83.10;;;;;;4890863;29;20032;-83
2024/02/04 04:52:49;;;;;;;6.93;5.50;;;12.90;83.20;;;;;;4893186;29;20116;-82
2024/02/04 04:55:15;;;;;;;6.40;4.93;;;13.00;83.20;;;;;;4891525;29;20044;-76
2024/02/04 04:57:41;;;;;;;6.93;5.22;;;12.90;83.10;;;;;;4875934;29;20049;-76
2024/02/04 05:00:09;;;;;;;7.03;5.10;;;12.90;83.20;;;;;;4893352;29;20059;-84
2024/02/04 05:02:40;;;;;;;7.35;5.53;;;12.90;83.20;;;;;;4887277;29;20477;-81
2024/02/04 05:05:06;;;;;;;7.75;5.55;;;12.90;83.20;;;;;;4894089;29;20135;-82
2024/02/04 05:07:32;;;;;;;6.20;4.88;;;12.90;83.20;;;;;;4890452;29;20374;-82
2024/02/04 05:09:57;;;;;;;6.63;5.32;;;12.90;83.20;;;;;;4891579;29;20043;-82
2024/02/04 05:12:23;;;;;;;6.05;4.70;;;12.90;83.20;;;;;;4891829;29;20040;-77
2024/02/04 05:14:49;;;;;;;7.15;5.65;;;12.90;83.20;;;;;;4891842;29;20107;-81
2024/02/04 05:17:15;;;;;;;6.15;4.90;;;12.80;83.80;;;;;;4875630;29;20069;-77
2024/02/04 05:19:43;;;;;;;7.70;5.22;;;12.90;83.20;;;;;;4890131;29;20037;-81
2024/02/04 05:22:10;;;;;;;7.20;4.97;;;12.90;83.30;;;;;;4905717;29;20036;-81
2024/02/04 05:24:35;;;;;;;6.55;5.10;;;12.90;83.30;;;;;;4873911;29;20032;-77
2024/02/04 05:27:01;;;;;;;7.15;5.30;;;12.90;83.30;;;;;;4891265;29;20239;-82
2024/02/04 05:29:27;;;;;;;6.82;5.07;;;12.80;83.20;;;;;;4878302;29;20184;-82
2024/02/04 05:31:53;;;;;;;6.97;4.90;;;12.80;83.50;;;;;;4892504;29;20032;-83
2024/02/04 05:34:18;;;;;;;6.15;4.68;;;12.80;83.30;;;;;;4907779;29;20088;-77
2024/02/04 05:36:44;;;;;;;7.05;5.75;;;12.80;83.30;;;;;;4890278;29;20033;-84
2024/02/04 05:39:16;;;;;;;6.95;4.97;;;12.80;83.30;;;;;;4889379;29;20020;-81
2024/02/04 05:41:43;;;;;;;6.75;4.90;;;12.80;83.30;;;;;;4906105;29;20080;-77
2024/02/04 05:44:09;;;;;;;5.45;4.55;;;12.80;83.30;;;;;;4894551;29;21563;-77
2024/02/04 05:46:36;;;;;;;6.28;4.80;;;12.80;83.30;;;;;;4896670;29;20184;-83
2024/02/04 05:49:02;;;;;;;5.97;4.63;;;12.80;83.30;;;;;;4890647;29;20063;-76
2024/02/04 05:51:28;;;;;;;5.93;4.57;;;12.80;83.30;;;;;;4897093;29;20916;-82
2024/02/04 05:53:54;;;;;;;7.00;5.07;;;12.80;83.30;;;;;;4895781;29;20103;-84
2024/02/04 05:56:20;;;;;;;5.75;4.50;;;12.80;83.30;;;;;;4895497;29;20109;-81
2024/02/04 05:58:46;;;;;;;5.57;3.95;;;12.80;83.30;;;;;;4877101;29;20156;-77
2024/02/04 06:01:12;;;;;;;6.93;5.00;;;12.80;83.30;;;;;;4897337;29;20055;-83
2024/02/04 06:03:38;;;;;;;6.68;4.85;;;12.80;83.30;;;;;;4877039;29;20033;-77
2024/02/04 06:06:04;;;;;;;6.72;4.63;;;12.80;83.30;;;;;;4898349;29;20025;-83
2024/02/04 06:08:30;;;;;;;7.20;5.15;;;12.70;83.30;;;;;;4892382;29;20098;-83
2024/02/04 06:10:56;;;;;;;6.25;4.38;;;12.70;83.30;;;;;;4896003;29;20500;-77
2024/02/04 06:13:21;;;;;;;7.30;4.88;;;12.70;83.30;;;;;;4897230;29;20128;-83
2024/02/04 06:15:47;;;;;;;7.82;4.65;;;12.70;83.30;;;;;;4896668;29;20154;-84
2024/02/04 06:18:13;;;;;;;6.85;5.03;;;12.70;83.30;;;;;;4896188;29;20200;-85
2024/02/04 06:20:38;;;;;;;6.18;4.88;;;12.70;83.40;;;;;;4881401;29;20080;-81
2024/02/04 06:23:04;;;;;;;5.93;4.47;;;12.70;83.30;;;;;;4895774;29;20025;-82
2024/02/04 06:25:30;;;;;;;5.70;4.30;;;12.70;83.40;;;;;;4906152;29;20056;-77
2024/02/04 06:27:55;;;;;;;6.45;4.47;;;12.70;83.40;;;;;;4898093;29;20060;-82
2024/02/04 06:30:21;;;;;;;5.70;4.28;;;12.70;83.30;;;;;;4895509;29;20028;-82
2024/02/04 06:32:50;;;;;;;6.07;4.43;;;12.70;84.00;;;;;;4883255;29;20032;-83
2024/02/04 06:35:16;;;;;;;5.90;4.43;;;12.70;83.40;;;;;;4893714;29;20032;-83
2024/02/04 06:37:45;;;;;;;6.80;4.55;;;12.70;83.30;;;;;;4892431;29;20033;-77
2024/02/04 06:40:11;;;;;;;6.65;4.65;;;12.70;83.40;;;;;;4894427;29;20024;-82
2024/02/04 06:42:37;;;;;;;5.70;4.30;;;12.70;83.40;;;;;;4879462;29;20052;-82
2024/02/04 06:45:03;;;;;;;6.13;4.68;;;12.70;83.40;;;;;;4879865;29;20065;-83
2024/02/04 06:47:29;;;;;;;7.25;5.25;;;12.70;83.40;;;;;;4893508;29;20120;-77
2024/02/04 06:49:54;;;;;;;6.30;5.20;;;12.60;83.40;;;;;;4891810;29;20029;-78
2024/02/04 06:52:20;;;;;;;6.65;5.60;;;12.60;83.40;;;;;;4893258;29;20040;-82
2024/02/04 06:54:46;;;;;;;8.00;6.28;;;12.70;83.40;;;;;;4893413;29;20024;-76
2024/02/04 06:57:12;;;;;;;7.55;6.03;;;12.60;83.40;;;;;;4890750;29;20064;-82
2024/02/04 06:59:38;;;;;;;7.28;5.55;;;12.60;83.40;;;;;;4880204;29;20049;-82
2024/02/04 07:02:03;;;;;;;7.47;5.85;;;12.60;83.40;;;;;;4892794;29;20051;-76
2024/02/04 07:04:29;;;;;;;6.85;5.47;;;12.60;83.30;;;;;;4910930;29;20041;-83
2024/02/04 07:06:55;;;;;;;6.70;5.20;;;12.60;83.30;;;;;;4893678;29;20065;-83
2024/02/04 07:09:20;;;;;;;7.07;5.30;;;12.60;83.30;;;;;;4911605;29;20117;-76
2024/02/04 07:11:46;;;;;;;7.80;5.47;;;12.60;83.30;;;;;;4894703;29;20033;-76
2024/02/04 07:14:12;;;;;;;7.25;5.47;;;12.60;83.60;;;;;;4895197;29;20034;-83
2024/02/04 07:16:38;;;;;;;7.30;5.78;;;12.70;83.40;;;;;;4894101;29;20466;-76
2024/02/04 07:19:04;;;;;;;7.93;6.15;;;12.70;83.40;;;;;;4897107;29;20488;-83
2024/02/04 07:21:30;;;;;;;7.88;6.00;;;12.60;83.30;;;;;;4894704;29;20044;-83
2024/02/04 07:23:55;;;;;;;7.45;5.47;;;12.60;83.30;;;;;;4891242;29;20122;-77
2024/02/04 07:26:21;;;;;;;6.95;5.85;;;12.60;83.30;;;;;;4894541;29;20088;-83
2024/02/04 07:28:47;;;;;;;8.13;5.80;;;12.60;83.30;;;;;;4895582;29;20040;-82
2024/02/04 07:31:13;;;;;;;7.05;5.35;;;12.60;83.40;;;;;;4895432;29;20037;-82
2024/02/04 07:33:38;;;;;;;7.25;5.63;;;12.60;83.30;;;;;;4893741;29;20044;-83
2024/02/04 07:36:04;;;;;;;7.07;6.00;;;12.60;83.30;;;;;;4894328;29;20115;-84
2024/02/04 07:38:30;;;;;;;7.07;5.28;;;12.60;83.40;;;;;;4906476;29;20028;-76
2024/02/04 07:40:58;;;;;;;6.80;5.65;;;12.60;83.40;;;;;;4892089;29;20073;-82
2024/02/04 07:43:24;;;;;;;7.68;5.80;;;12.60;83.40;;;;;;4894912;29;20164;-81
2024/02/04 07:45:50;;;;;;;7.43;5.68;;;12.60;83.40;;;;;;4892422;29;20033;-76
2024/02/04 07:48:17;;;;;;;7.43;5.90;;;12.60;83.40;;;;;;4890152;29;20051;-83
2024/02/04 07:50:43;;;;;;;7.40;5.90;;;12.60;83.40;;;;;;4894628;29;20028;-83
2024/02/04 07:53:09;;;;;;;7.15;5.68;;;12.60;83.40;;;;;;4879222;29;20020;-85
2024/02/04 07:55:34;;;;;;;7.53;5.35;;;12.60;83.40;;;;;;4878144;29;20117;-86
2024/02/04 07:58:00;;;;;;;6.82;5.43;;;12.60;83.40;;;;;;4894895;29;20026;-76
2024/02/04 08:00:26;;;;;;;6.30;5.38;;;12.60;83.40;;;;;;4889978;29;20044;-84
2024/02/04 08:02:52;;;;;;;6.90;5.28;;;12.60;83.40;;;;;;4894756;29;20032;-82
2024/02/04 08:05:17;;;;;;;7.47;5.82;;;12.60;83.40;;;;;;4890053;29;20088;-83
2024/02/04 08:07:43;;;;;;;6.47;5.03;;;12.60;83.30;;;;;;4892188;29;20028;-84
2024/02/04 08:10:09;;;;;;;6.18;4.90;;;12.60;83.40;;;;;;4878745;29;20029;-88
2024/02/04 08:12:35;;;;;;;6.95;5.07;;;12.60;83.30;;;;;;4862628;29;20029;-77
2024/02/04 08:15:01;;;;;;;7.80;5.40;;;12.60;83.40;;;;;;4902285;29;20028;-77
2024/02/04 08:17:28;;;;;;;7.78;5.32;;;12.60;83.40;;;;;;4895463;29;20471;-84
2024/02/04 08:19:54;;;;;;;6.88;4.93;;;12.60;83.40;;;;;;4887952;29;20040;-84
2024/02/04 08:22:20;;;;;;;7.70;5.57;;;12.60;84.00;;;;;;4885231;29;20031;-83
2024/02/04 08:24:46;;;;;;;6.57;5.28;;;12.60;83.30;;;;;;4880018;29;20036;-77
2024/02/04 08:27:15;;;;;;;6.80;5.22;;;12.60;83.30;;;;;;4874693;29;20027;-87
2024/02/04 08:29:42;;;;;;;6.60;5.03;;;12.60;83.30;;;;;;4897534;29;20031;-77
2024/02/04 08:32:08;;;;;;;6.20;5.20;;;12.60;83.30;;;;;;4893139;29;20025;-77
2024/02/04 08:34:34;;;;;;;6.05;4.55;;;12.60;83.30;;;;;;4862564;29;20065;-89
2024/02/04 08:36:59;;;;;;;5.60;4.28;;;12.60;83.30;;;;;;4891136;29;20033;-83
2024/02/04 08:39:25;;;;;;;6.65;4.65;;;12.60;83.30;;;;;;4873268;29;20048;-83
2024/02/04 08:41:51;;;;;;;5.82;4.53;;;12.60;83.30;;;;;;4886672;29;20035;-89
2024/02/04 08:44:17;;;;;;;5.93;4.70;;;12.60;83.30;;;;;;4888592;29;20025;-77
2024/02/04 08:46:43;;;;;;;5.82;4.78;;;12.60;83.20;;;;;;4890645;29;20029;-87
2024/02/04 08:49:08;;;;;;;5.20;4.15;;;12.70;83.30;;;;;;4893012;29;20080;-88
2024/02/04 08:51:34;;;;;;;6.43;4.40;;;12.60;83.20;;;;;;4885758;29;20040;-77
2024/02/04 08:54:00;;;;;;;5.47;4.30;;;12.60;83.20;;;;;;4873852;29;20044;-88
2024/02/04 08:56:26;;;;;;;6.00;4.43;;;12.60;83.20;;;;;;4898444;29;20036;-85
2024/02/04 08:58:52;;;;;;;5.60;4.22;;;12.60;83.20;;;;;;4894913;29;20060;-85
2024/02/04 09:01:19;;;;;;;5.40;3.97;;;12.70;83.30;;;;;;4908577;29;20026;-85
2024/02/04 09:03:45;;;;;;;5.82;4.10;;;12.60;83.20;;;;;;4895171;29;20081;-90
2024/02/04 09:06:10;;;;;;;5.32;3.92;;;12.70;83.30;;;;;;4878761;29;20056;-77
2024/02/04 09:08:36;;;;;;;5.15;3.58;;;12.60;83.30;;;;;;4892642;29;20063;-84
2024/02/04 09:11:02;;;;;;;5.68;3.88;;;12.70;83.30;;;;;;4877509;29;20112;-82
2024/02/04 09:13:27;;;;;;;5.10;3.92;;;12.60;83.30;;;;;;4895127;29;20029;-85
2024/02/04 09:15:53;;;;;;;5.18;3.90;;;12.60;83.30;;;;;;4891735;29;20036;-84
2024/02/04 09:18:20;;;;;;;4.90;3.70;;;12.60;83.30;;;;;;4896551;29;20040;-86
2024/02/04 09:20:47;;;;;;;4.85;3.42;;;12.60;83.30;;;;;;4898010;29;20442;-86
2024/02/04 09:23:13;;;;;;;4.85;3.35;;;12.60;83.30;;;;;;4880795;29;20017;-85
2024/02/04 09:25:39;;;;;;;4.65;3.53;;;12.70;83.30;;;;;;4887410;29;20096;-87
2024/02/04 09:28:05;;;;;;;5.20;3.67;;;12.60;83.30;;;;;;4899032;29;20048;-87
2024/02/04 09:30:31;;;;;;;4.72;3.58;;;12.60;83.30;;;;;;4896024;29;20414;-82
2024/02/04 09:32:57;;;;;;;5.13;3.67;;;12.60;83.30;;;;;;4897798;29;20032;-85
2024/02/04 09:35:23;;;;;;;4.53;3.33;;;12.70;83.40;;;;;;4886801;29;20081;-96
2024/02/04 09:37:48;;;;;;;4.38;3.30;;;12.60;83.30;;;;;;4899701;29;20112;-84
2024/02/04 09:40:15;;;;;;;3.95;3.08;;;12.70;83.40;;;;;;4899229;29;20115;-78
2024/02/04 09:42:40;;;;;;;5.07;3.38;;;12.60;83.30;;;;;;4880133;29;20060;-77
2024/02/04 09:45:07;;;;;;;4.90;3.45;;;12.60;83.30;;;;;;4883868;29;20063;-84
2024/02/04 09:47:34;;;;;;;4.97;3.38;;;12.60;83.30;;;;;;4895809;29;20041;-84
2024/02/04 09:50:00;;;;;;;4.55;3.60;;;12.60;83.40;;;;;;4894327;29;20041;-89
2024/02/04 09:52:31;;;;;;;4.32;3.17;;;12.60;83.40;;;;;;4895065;29;20097;-77
2024/02/04 09:55:03;;;;;;;4.55;3.42;;;12.60;83.40;;;;;;4880442;29;20036;-77
2024/02/04 09:57:34;;;;;;;4.72;3.25;;;12.60;83.40;;;;;;4878868;29;20080;-92
2024/02/04 10:00:02;;;;;;;5.05;3.33;;;12.60;83.40;;;;;;4883966;29;20028;-84
2024/02/04 10:02:37;;;;;;;4.25;3.25;;;12.60;83.40;;;;;;4898531;29;20088;-85
2024/02/04 10:05:03;;;;;;;3.78;3.05;;;12.60;83.40;;;;;;4899870;29;20026;-91
2024/02/04 10:07:29;;;;;;;4.00;2.70;;;12.60;83.40;;;;;;4893846;29;20103;-84
2024/02/04 10:09:55;;;;;;;3.97;3.20;;;12.60;83.40;;;;;;4883230;29;20095;-85
2024/02/04 10:12:21;;;;;;;3.90;2.90;;;12.60;83.40;;;;;;4885352;29;20052;-85
2024/02/04 10:14:49;;;;;;;4.20;3.08;;;12.60;83.40;;;;;;4879306;29;20028;-92
2024/02/04 10:17:16;;;;;;;5.15;3.10;;;12.60;83.40;;;;;;4897658;29;20031;-84
2024/02/04 10:19:41;;;;;;;3.65;2.92;;;12.70;83.50;;;;;;4882020;29;20032;-83
2024/02/04 10:22:07;;;;;;;3.28;2.83;;;12.60;83.40;;;;;;4882015;29;20136;-92
2024/02/04 10:24:33;;;;;;;4.03;2.70;;;12.60;83.40;;;;;;4881660;29;20021;-83
2024/02/04 10:26:59;;;;;;;4.47;2.70;;;12.60;83.40;;;;;;4882217;29;20039;-83
2024/02/04 10:29:25;;;;;;;4.05;3.05;;;12.70;83.40;;;;;;4894955;29;20036;-85
2024/02/04 10:31:57;;;;;;;3.03;2.65;;;12.70;83.40;;;;;;4890702;29;20041;-78
2024/02/04 10:34:27;;;;;;;3.55;2.65;;;12.70;83.40;;;;;;4887266;29;20059;-85
2024/02/04 10:36:53;;;;;;;4.72;3.25;;;12.70;83.40;;;;;;4880482;29;20060;-87
2024/02/04 10:39:19;;;;;;;3.35;2.75;;;12.70;83.30;;;;;;4895946;29;20115;-86
2024/02/04 10:41:52;;;;;;;3.17;2.53;;;12.70;83.30;;;;;;4883038;29;20128;-85
2024/02/04 10:44:22;;;;;;;3.03;2.60;;;12.70;83.40;;;;;;4883282;29;20081;-91
2024/02/04 10:46:49;;;;;;;3.30;2.50;;;12.80;83.40;;;;;;4896764;29;20032;-84
2024/02/04 10:49:17;;;;;;;3.90;2.67;;;12.80;83.40;;;;;;4887674;29;20044;-89
2024/02/04 10:51:45;;;;;;;3.50;2.60;;;12.70;83.30;;;;;;4880750;29;20036;-84
2024/02/04 10:54:15;;;;;;;2.75;2.20;;;12.80;83.30;;;;;;4878544;29;20180;-84
2024/02/04 10:56:48;;;;;;;2.67;2.30;;;12.80;83.30;;;;;;4889681;29;20088;-84
2024/02/04 10:59:19;;;;;;;3.00;2.40;;;12.80;83.30;;;;;;4880972;29;20415;-84
2024/02/04 11:01:49;;;;;;;2.88;2.30;;;12.80;83.30;;;;;;4892641;29;20048;-82
2024/02/04 11:04:16;;;;;;;2.92;2.30;;;12.80;83.30;;;;;;4885468;29;20031;-86
2024/02/04 11:06:43;;;;;;;2.35;2.15;;;12.90;83.30;;;;;;4899732;29;20029;-86
2024/02/04 11:09:11;;;;;;;3.95;2.00;;;12.90;83.30;;;;;;4895875;29;20047;-77
2024/02/04 11:11:39;;;;;;;4.70;2.45;;;12.80;83.20;;;;;;4881358;29;20039;-85
2024/02/04 11:14:09;;;;;;;2.80;2.22;;;12.90;83.30;;;;;;4880060;29;20089;-78
2024/02/04 11:16:46;;;;;;;2.53;1.90;;;12.90;83.30;;;;;;4873494;29;20033;-88
2024/02/04 11:19:23;;;;;;;2.10;1.90;;;12.90;83.30;;;;;;4877940;29;20084;-91
2024/02/04 11:22:12;;;;;;;2.42;2.00;;;12.90;83.20;;;;;;4885925;29;20033;-90
2024/02/04 11:24:47;;;;;;;3.25;2.50;;;12.90;83.30;;;;;;4878366;29;20387;-84
2024/02/04 11:27:13;;;;;;;3.20;1.73;;;12.90;83.20;;;;;;4876146;29;20092;-86
2024/02/04 11:29:39;;;;;;;2.65;1.70;;;12.90;83.20;;;;;;4879225;29;20517;-86
2024/02/04 11:32:06;;;;;;;1.95;1.77;;;13.00;83.20;;;;;;4877993;29;20029;-78
2024/02/04 11:34:33;;;;;;;2.10;1.90;;;13.00;83.20;;;;;;4878506;29;20036;-87
2024/02/04 11:37:00;;;;;;;2.10;1.90;;;13.00;83.20;;;;;;4894373;29;20045;-83
2024/02/04 11:39:26;;;;;;;2.25;2.05;;;13.00;83.20;;;;;;4864498;29;20486;-86
2024/02/04 11:41:52;;;;;;;2.30;1.80;;;13.00;83.20;;;;;;4875987;29;20043;-78
2024/02/04 11:44:25;;;;;;;2.08;1.70;;;13.00;83.20;;;;;;4889343;29;20024;-86
2024/02/04 11:46:54;;;;;;;;;;;13.10;83.20;;;;;;4903356;29;20044;-78
2024/02/04 11:49:26;;;;;;;1.55;1.30;;;13.00;83.10;;;;;;4881091;29;19911;-87
2024/02/04 11:51:52;;;;;;;1.58;1.48;;;13.00;83.00;;;;;;4881684;29;20080;-78
2024/02/04 11:54:21;;;;;;;1.67;1.33;;;13.00;83.10;;;;;;4889662;29;20077;-92
2024/02/04 11:56:53;;;;;;;2.25;1.40;;;13.00;83.10;;;;;;4893785;29;20051;-95
2024/02/04 11:59:23;;;;;;;2.08;1.58;;;13.10;83.20;;;;;;4895317;29;20494;-96
2024/02/04 12:02:06;;;;;;;3.78;1.55;;;13.00;83.80;;;;;;4910531;29;20027;-94
2024/02/04 12:04:32;;;;;;;2.00;1.35;;;13.00;83.20;;;;;;4896238;29;20032;-82
2024/02/04 12:06:58;;;;;;;1.50;1.40;;;13.00;83.10;;;;;;4877139;29;20033;-82
2024/02/04 12:09:26;;;;;;;1.50;1.38;;;13.10;83.20;;;;;;4893862;29;20040;-82
2024/02/04 12:11:54;;;;;;;1.63;1.30;;;13.10;83.20;;;;;;4876666;29;20126;-78
2024/02/04 12:14:19;;;;;;;1.40;1.30;;;13.10;83.20;;;;;;4888193;29;20163;-86
2024/02/04 12:16:45;;;;;;;1.80;1.50;;;13.10;83.20;;;;;;4870847;29;20119;-85
2024/02/04 12:19:11;;;;;;;1.50;1.40;;;13.10;83.20;;;;;;4885944;29;20410;-87
2024/02/04 12:21:37;;;;;;;1.50;1.40;;;13.10;83.20;;;;;;4866416;29;20028;-85
2024/02/04 12:24:04;;;;;;;1.60;1.50;;;13.10;83.20;;;;;;4874343;29;20033;-90
2024/02/04 12:26:30;;;;;;;1.83;1.42;;;13.10;83.20;;;;;;4895472;29;20125;-84
2024/02/04 12:28:56;;;;;;;1.58;1.45;;;13.10;83.20;;;;;;4893826;29;20036;-86
2024/02/04 12:31:29;;;;;;;1.70;1.50;;;13.10;83.20;;;;;;4894340;29;20033;-82
2024/02/04 12:33:57;;;;;;;2.28;1.58;;;13.10;83.20;;;;;;4874387;29;20039;-89
2024/02/04 12:36:28;;;;;;;2.05;1.80;;;13.10;83.20;;;;;;4892884;29;20029;-83
2024/02/04 12:39:01;;;;;;;2.50;1.70;;;13.20;83.20;;;;;;4892274;29;20119;-78
2024/02/04 12:41:29;;;;;;;1.60;1.50;;;13.10;83.20;;;;;;4897010;29;20123;-82
2024/02/04 12:43:58;;;;;;;1.55;1.45;;;13.10;83.20;;;;;;4893826;29;20024;-78
2024/02/04 12:46:24;;;;;;;2.35;1.90;;;13.10;83.20;;;;;;4889756;29;20033;-78